Time;durP1;ratioP1;P1;durP2;ratioP2;P2;SDS_P1;SDS_P2;PMS_P1;PMS_P2;Temp;Humidity;BMP_temperature;BMP_pressure;BME280_temperature;BME280_humidity;BME280_pressure;Samples;Min_cycle;Max_cycle;Signal;HPM_P1;HPM_P2
2022/08/04 00:02:17;;;;;;;;;3.25;3.25;;;;;27.67;44.93;100679.91;5090029;27;45445;-84
2022/08/04 00:05:18;;;;;;;;;2.00;2.00;;;;;27.61;44.92;100679.25;5094075;27;45509;-83
2022/08/04 00:07:51;;;;;;;;;2.50;2.50;;;;;27.48;44.95;100657.22;5094578;27;45764;-85
2022/08/04 00:10:19;;;;;;;;;2.50;2.25;;;;;27.45;44.96;100649.25;5075649;27;46996;-83
2022/08/04 00:12:49;;;;;;;;;2.25;2.25;;;;;27.62;44.68;100673.78;5075806;27;45855;-86
2022/08/04 00:15:16;;;;;;;;;2.75;2.75;;;;;27.47;44.52;100650.06;5075704;27;45425;-84
2022/08/04 00:17:52;;;;;;;;;2.50;2.25;;;;;27.48;44.08;100654.53;5093980;27;45395;-84
2022/08/04 00:20:19;;;;;;;;;1.50;1.50;;;;;27.53;44.27;100656.09;5093585;27;45517;-84
2022/08/04 00:22:46;;;;;;;;;1.00;1.00;;;;;27.55;43.79;100653.38;5093989;27;45757;-85
2022/08/04 00:25:12;;;;;;;;;2.75;2.75;;;;;27.58;44.16;100655.06;5078938;27;45525;-85
2022/08/04 00:27:38;;;;;;;;;3.25;2.50;;;;;27.60;43.85;100662.19;5098345;27;45474;-85
2022/08/04 00:30:05;;;;;;;;;2.75;2.75;;;;;27.62;44.06;100670.22;5079222;27;48388;-84
2022/08/04 00:32:31;;;;;;;;;1.75;1.50;;;;;27.56;44.00;100660.53;5079153;27;45639;-83
2022/08/04 00:34:58;;;;;;;;;3.00;2.00;;;;;27.70;43.59;100687.91;5097231;27;45731;-84
2022/08/04 00:37:24;;;;;;;;;2.50;2.00;;;;;27.54;43.48;100651.63;5079050;27;45759;-85
2022/08/04 00:39:51;;;;;;;;;3.25;2.75;;;;;27.71;43.97;100664.50;5078952;27;47291;-83
2022/08/04 00:42:57;;;;;;;;;1.00;1.00;;;;;27.77;44.39;100672.38;5097532;27;45709;-85
2022/08/04 00:45:37;;;;;;;;;2.75;2.50;;;;;27.75;44.21;100675.16;5097375;27;45366;-84
2022/08/04 00:48:21;;;;;;;;;3.50;3.00;;;;;27.73;44.84;100674.34;5079134;27;45619;-85
2022/08/04 00:51:02;;;;;;;;;4.75;4.50;;;;;27.70;44.51;100679.81;5097175;27;46432;-85
2022/08/04 00:53:39;;;;;;;;;4.75;4.75;;;;;27.68;44.80;100683.47;5097327;27;45496;-85
2022/08/04 00:56:23;;;;;;;;;3.25;3.00;;;;;27.43;45.22;100638.50;5097342;27;45345;-85
2022/08/04 00:59:11;;;;;;;;;3.25;2.75;;;;;27.57;45.07;100664.97;5097158;27;45469;-85
2022/08/04 01:01:54;;;;;;;;;6.00;3.50;;;;;27.64;45.11;100676.47;5097260;27;45588;-85
2022/08/04 01:04:26;;;;;;;;;3.00;3.00;;;;;27.52;45.60;100650.78;5078445;27;45874;-85
2022/08/04 01:07:14;;;;;;;;;2.00;2.00;;;;;27.64;45.50;100666.53;5097400;27;45297;-84
2022/08/04 01:10:16;;;;;;;;;4.00;3.50;;;;;27.62;45.76;100668.41;5086086;27;45426;-84
2022/08/04 01:13:06;;;;;;;;;3.00;2.50;;;;;27.54;45.53;100659.72;5089366;27;46680;-85
2022/08/04 01:15:45;;;;;;;;;3.00;3.00;;;;;27.51;45.60;100657.13;5097366;27;45586;-84
2022/08/04 01:18:36;;;;;;;;;2.50;2.50;;;;;27.53;45.83;100668.72;5096918;27;45335;-85
2022/08/04 01:21:10;;;;;;;;;2.50;2.00;;;;;27.53;45.48;100668.72;5057017;27;45421;-85
2022/08/04 01:24:04;;;;;;;;;2.00;2.00;;;;;27.40;45.56;100652.13;5078321;27;47382;-86
2022/08/04 01:26:51;;;;;;;;;2.25;2.25;;;;;27.50;45.53;100666.16;5096827;27;45291;-85
2022/08/04 01:29:21;;;;;;;;;4.00;3.25;;;;;27.37;45.56;100654.91;5096847;27;45389;-84
2022/08/04 01:31:53;;;;;;;;;3.00;3.00;;;;;27.44;45.62;100671.78;5078636;27;45437;-86
2022/08/04 01:34:20;;;;;;;;;2.75;2.25;;;;;27.39;46.00;100671.97;5096053;27;45627;-84
2022/08/04 01:36:59;;;;;;;;;4.00;3.25;;;;;27.36;45.96;100663.09;5095556;27;45825;-85
2022/08/04 01:39:41;;;;;;;;;2.25;2.00;;;;;27.34;46.08;100662.25;5078185;27;45465;-84
2022/08/04 01:42:11;;;;;;;;;2.50;2.50;;;;;27.38;45.66;100672.88;5096645;27;45441;-84
2022/08/04 01:44:39;;;;;;;;;3.00;2.00;;;;;27.35;45.74;100667.59;5096330;27;45370;-85
2022/08/04 01:47:07;;;;;;;;;2.75;2.75;;;;;27.22;45.86;100648.25;5078074;27;45567;-85
2022/08/04 01:49:32;;;;;;;;;3.00;3.00;;;;;27.16;45.87;100650.31;5077589;27;45666;-83
2022/08/04 01:51:58;;;;;;;;;3.00;3.00;;;;;27.21;45.97;100662.69;5096240;27;45563;-83
2022/08/04 01:54:25;;;;;;;;;5.00;4.00;;;;;27.10;46.42;100640.63;5077790;27;46255;-84
2022/08/04 01:56:53;;;;;;;;;3.50;3.50;;;;;27.10;45.69;100640.63;5077702;27;46025;-84
2022/08/04 01:59:20;;;;;;;;;2.50;2.50;;;;;27.16;46.22;100653.00;5096129;27;45311;-83
2022/08/04 02:01:46;;;;;;;;;2.25;2.25;;;;;27.00;45.86;100628.34;5096270;27;45446;-85
2022/08/04 02:04:16;;;;;;;;;2.00;2.00;;;;;27.18;46.12;100646.59;5076984;27;47382;-84
2022/08/04 02:06:59;;;;;;;;;3.00;3.00;;;;;27.07;45.98;100639.78;5077751;27;46024;-85
2022/08/04 02:09:46;;;;;;;;;2.00;2.00;;;;;27.15;46.36;100653.94;5096214;27;45451;-84
2022/08/04 02:12:52;;;;;;;;;2.25;2.25;;;;;27.13;46.20;100651.28;5096238;27;45665;-84
2022/08/04 02:15:27;;;;;;;;;4.00;3.00;;;;;27.10;46.31;100648.72;5095875;27;46435;-85
2022/08/04 02:18:09;;;;;;;;;2.75;2.75;;;;;26.86;45.88;100614.47;5095851;27;45462;-84
2022/08/04 02:20:43;;;;;;;;;3.75;3.00;;;;;27.01;46.26;100649.00;5077366;27;45714;-84
2022/08/04 02:23:27;;;;;;;;;3.25;3.00;;;;;26.82;46.47;100621.78;5095784;27;45244;-84
2022/08/04 02:25:59;;;;;;;;;2.00;2.00;;;;;26.76;46.59;100616.59;5095795;27;45475;-85
2022/08/04 02:28:30;;;;;;;;;2.00;2.00;;;;;26.93;46.63;100645.66;5095827;27;45868;-85
2022/08/04 02:31:26;;;;;;;;;4.00;4.00;;;;;26.91;46.86;100639.44;5077683;27;45421;-83
2022/08/04 02:33:59;;;;;;;;;1.50;1.50;;;;;26.85;47.19;100629.75;5095456;27;45556;-86
2022/08/04 02:36:34;;;;;;;;;2.00;2.00;;;;;26.80;47.01;100622.75;5095579;27;46733;-84
2022/08/04 02:39:02;;;;;;;;;2.50;2.50;;;;;26.73;46.98;100622.06;5077304;27;45628;-85
2022/08/04 02:41:30;;;;;;;;;2.00;2.00;;;;;26.65;46.94;100618.75;5095340;27;45486;-84
2022/08/04 02:43:59;;;;;;;;;2.00;2.00;;;;;26.56;47.16;100617.28;5077054;27;45482;-85
2022/08/04 02:46:25;;;;;;;;;5.25;4.00;;;;;26.67;46.86;100641.16;5095315;27;45285;-85
2022/08/04 02:48:52;;;;;;;;;3.00;3.00;;;;;26.56;46.86;100625.34;5095109;27;45861;-84
2022/08/04 02:51:27;;;;;;;;;3.00;3.00;;;;;26.63;46.57;100629.59;5095820;27;45307;-86
2022/08/04 02:53:55;;;;;;;;;3.50;3.00;;;;;26.55;47.09;100622.69;5095797;27;45465;-85
2022/08/04 02:56:22;;;;;;;;;2.75;2.75;;;;;26.53;47.40;100628.13;5095421;27;45377;-85
2022/08/04 02:58:52;;;;;;;;;3.00;2.75;;;;;26.49;47.43;100621.09;5095292;27;45386;-84
2022/08/04 03:01:17;;;;;;;;;2.50;2.00;;;;;26.55;46.81;100642.47;5095344;27;45449;-85
2022/08/04 03:04:18;;;;;;;;;4.00;2.75;;;;;26.61;46.84;100657.56;5095120;27;45439;-85
2022/08/04 03:07:05;;;;;;;;;3.50;3.50;;;;;26.59;47.39;100660.28;5035153;28;47961;-85
2022/08/04 03:09:54;;;;;;;;;2.00;2.00;;;;;26.57;47.62;100648.69;5092317;27;45486;-85
2022/08/04 03:12:57;;;;;;;;;3.25;3.25;;;;;26.57;47.30;100648.69;5095609;27;45512;-86
2022/08/04 03:15:54;;;;;;;;;4.00;3.00;;;;;26.42;47.35;100624.91;5095160;27;45599;-85
2022/08/04 03:18:51;;;;;;;;;3.00;3.00;;;;;26.55;47.37;100653.25;5076444;27;47312;-84
2022/08/04 03:21:46;;;;;;;;;3.00;3.00;;;;;26.53;47.86;100644.31;5052602;27;45346;-85
2022/08/04 03:24:17;;;;;;;;;3.75;3.00;;;;;26.49;47.77;100646.22;5075767;27;45345;-84
2022/08/04 03:27:08;;;;;;;;;3.00;3.00;;;;;26.35;47.75;100624.19;5094971;27;45375;-84
2022/08/04 03:29:42;;;;;;;;;3.00;3.00;;;;;26.44;47.83;100633.84;5076427;27;46463;-84
2022/08/04 03:32:34;;;;;;;;;2.50;2.50;;;;;26.40;48.09;100637.53;5094901;27;45410;-84
2022/08/04 03:35:37;;;;;;;;;3.00;3.00;;;;;26.36;47.77;100641.28;5094587;27;45702;-83
2022/08/04 03:38:14;;;;;;;;;3.25;3.25;;;;;26.29;47.73;100635.16;5094540;27;45544;-85
2022/08/04 03:40:49;;;;;;;;;3.00;3.00;;;;;26.24;48.43;100643.41;5094747;27;46361;-85
2022/08/04 03:43:39;;;;;;;;;3.75;3.75;;;;;26.21;48.13;100643.53;5076045;27;45304;-84
2022/08/04 03:46:23;;;;;;;;;3.25;3.00;;;;;26.18;48.07;100637.34;5076385;27;45481;-84
2022/08/04 03:48:58;;;;;;;;;3.50;3.00;;;;;26.14;48.84;100638.34;5094210;27;45406;-85
2022/08/04 03:54:55;;;;;;;;;3.75;3.75;;;;;26.08;48.62;100630.47;5094617;27;45450;-85
2022/08/04 03:57:36;;;;;;;;;3.75;3.50;;;;;26.03;48.32;100638.69;5094557;27;45545;-85
2022/08/04 04:00:08;;;;;;;;;3.00;3.00;;;;;25.88;48.96;100610.44;5075902;27;45580;-85
2022/08/04 04:02:51;;;;;;;;;4.00;3.00;;;;;26.00;48.71;100625.31;5075877;27;47402;-84
2022/08/04 04:05:29;;;;;;;;;2.50;2.50;;;;;25.99;48.98;100626.25;5075516;27;45408;-84
2022/08/04 04:08:06;;;;;;;;;4.00;3.25;;;;;25.99;48.87;100626.25;5076184;27;45473;-84
2022/08/04 04:10:37;;;;;;;;;3.00;3.00;;;;;25.98;49.23;100624.50;5076004;27;45302;-84
2022/08/04 04:13:14;;;;;;;;;3.50;3.50;;;;;25.98;48.88;100646.03;5094203;27;45858;-85
2022/08/04 04:16:15;;;;;;;;;3.00;2.00;;;;;25.89;49.33;100630.16;5075847;27;45606;-85
2022/08/04 04:18:50;;;;;;;;;4.00;4.00;;;;;25.95;48.88;100649.69;5075490;27;45512;-84
2022/08/04 04:21:46;;;;;;;;;4.50;4.50;;;;;25.97;48.95;100663.13;5094157;27;45702;-85
2022/08/04 04:24:32;;;;;;;;;4.00;4.00;;;;;25.96;48.55;100654.16;5094101;27;45543;-84
2022/08/04 04:27:15;;;;;;;;;2.00;2.00;;;;;25.86;48.77;100638.31;5094101;27;45485;-85
2022/08/04 04:29:59;;;;;;;;;4.00;4.00;;;;;25.93;49.15;100650.69;5093999;27;45502;-84
2022/08/04 04:32:55;;;;;;;;;3.50;3.50;;;;;25.93;48.54;100665.03;5075802;27;45470;-85
2022/08/04 04:35:48;;;;;;;;;3.00;3.00;;;;;25.93;48.60;100658.75;5075122;27;47625;-84
2022/08/04 04:38:51;;;;;;;;;3.00;3.00;;;;;25.91;49.31;100674.06;5093949;27;45384;-85
2022/08/04 04:41:22;;;;;;;;;3.00;3.00;;;;;25.91;49.10;100679.44;5075577;27;45493;-84
2022/08/04 04:44:13;;;;;;;;;3.25;3.25;;;;;25.90;48.87;100699.25;5075476;27;45342;-85
2022/08/04 04:46:46;;;;;;;;;3.25;3.25;;;;;25.80;49.51;100679.78;5075067;27;47130;-85
2022/08/04 04:49:31;;;;;;;;;2.00;2.00;;;;;25.78;49.37;100670.00;5074905;27;45889;-85
2022/08/04 04:52:08;;;;;;;;;3.75;3.75;;;;;25.78;48.89;100661.91;5093917;27;45370;-85
2022/08/04 04:54:39;;;;;;;;;4.00;3.25;;;;;25.87;49.65;100683.19;5075348;27;45399;-85
2022/08/04 04:57:22;;;;;;;;;3.50;3.25;;;;;25.71;49.36;100678.22;5093471;27;46291;-85
2022/08/04 04:59:54;;;;;;;;;4.00;2.75;;;;;25.79;49.18;100693.28;5075089;27;45874;-85
2022/08/04 05:02:38;;;;;;;;;5.75;3.00;;;;;25.86;49.13;100689.47;5075254;27;45414;-84
2022/08/04 05:05:20;;;;;;;;;3.50;3.50;;;;;25.70;48.65;100671.03;5093112;27;45358;-83
2022/08/04 05:08:16;;;;;;;;;4.00;3.00;;;;;25.78;49.09;100702.31;5093548;27;45776;-83
2022/08/04 05:11:17;;;;;;;;;3.00;3.00;;;;;25.52;49.56;100674.28;5095932;27;45414;-83
2022/08/04 05:13:53;;;;;;;;;4.00;4.00;;;;;25.60;49.18;100682.13;5078490;27;45301;-84
2022/08/04 05:16:46;;;;;;;;;3.75;3.00;;;;;25.61;48.70;100684.75;5078602;27;45569;-83
2022/08/04 05:19:30;;;;;;;;;3.00;3.00;;;;;25.57;48.83;100704.66;5076030;27;48187;-84
2022/08/04 05:22:35;;;;;;;;;3.00;3.00;;;;;25.45;49.28;100704.97;5096864;27;45433;-85
2022/08/04 05:25:11;;;;;;;;;5.25;4.25;;;;;25.50;49.21;100700.34;5076537;27;45465;-84
2022/08/04 05:27:43;;;;;;;;;4.25;3.00;;;;;25.44;49.33;100703.22;5078368;27;45470;-83
2022/08/04 05:30:11;;;;;;;;;5.00;3.50;;;;;25.39;49.07;100697.94;5078076;27;46386;-83
2022/08/04 05:32:46;;;;;;;;;2.50;2.25;;;;;25.37;49.58;100712.34;5096630;27;45379;-83
2022/08/04 05:35:21;;;;;;;;;4.75;4.75;;;;;25.46;49.15;100731.81;5078115;27;45392;-83
2022/08/04 05:37:49;;;;;;;;;5.00;4.50;;;;;25.34;49.98;100725.91;5078558;27;45619;-83
2022/08/04 05:40:17;;;;;;;;;4.50;3.25;;;;;25.35;49.40;100720.47;5096323;27;45404;-84
2022/08/04 05:42:43;;;;;;;;;4.25;4.00;;;;;25.29;49.39;100711.69;5096544;27;45402;-82
2022/08/04 05:45:09;;;;;;;;;3.00;3.00;;;;;25.39;49.32;100730.25;5096631;27;45456;-83
2022/08/04 05:47:35;;;;;;;;;3.50;3.25;;;;;25.43;49.87;100733.75;5096549;27;45461;-84
2022/08/04 05:50:02;;;;;;;;;4.25;3.00;;;;;25.11;49.89;100680.78;5096076;27;46566;-85
2022/08/04 05:52:30;;;;;;;;;3.50;3.50;;;;;25.13;49.94;100682.53;5096335;27;45347;-84
2022/08/04 05:54:57;;;;;;;;;3.50;3.00;;;;;25.20;49.83;100691.28;5096476;27;45465;-84
2022/08/04 05:57:24;;;;;;;;;3.00;2.50;;;;;25.20;49.82;100686.78;5096405;27;45510;-83
2022/08/04 05:59:51;;;;;;;;;2.00;2.00;;;;;25.35;49.70;100714.22;5096052;27;46275;-82
2022/08/04 06:02:18;;;;;;;;;3.25;3.25;;;;;25.33;49.39;100702.63;5077860;27;45288;-85
2022/08/04 06:04:48;;;;;;;;;4.25;3.50;;;;;25.43;49.89;100701.44;5095976;27;45402;-83
2022/08/04 06:07:13;;;;;;;;;4.00;3.50;;;;;25.35;49.73;100688.19;5096273;27;45413;-83
2022/08/04 06:09:40;;;;;;;;;5.25;4.75;;;;;25.51;49.60;100702.09;5077635;27;46964;-83
2022/08/04 06:12:14;;;;;;;;;4.25;4.00;;;;;25.38;49.00;100673.78;5096267;27;45897;-83
2022/08/04 06:14:42;;;;;;;;;3.00;3.00;;;;;25.45;49.39;100684.31;5096103;27;45562;-84
2022/08/04 06:17:12;;;;;;;;;3.25;3.00;;;;;25.59;49.00;100713.56;5096069;27;46129;-84
2022/08/04 06:19:39;;;;;;;;;2.25;2.25;;;;;25.62;48.84;100715.28;5076889;27;47666;-85
2022/08/04 06:22:08;;;;;;;;;4.75;3.50;;;;;25.61;49.43;100719.75;5076472;27;45861;-83
2022/08/04 06:24:36;;;;;;;;;3.50;3.50;;;;;25.52;48.78;100705.66;5095860;27;45330;-85
2022/08/04 06:27:03;;;;;;;;;4.25;3.50;;;;;25.59;49.33;100716.25;5095862;27;45485;-84
2022/08/04 06:29:40;;;;;;;;;6.00;5.00;;;;;25.52;48.71;100695.81;5095599;27;45459;-85
2022/08/04 06:32:23;;;;;;;;;3.75;3.75;;;;;25.74;48.97;100734.66;5095804;27;45811;-85
2022/08/04 06:34:53;;;;;;;;;2.25;2.25;;;;;25.64;49.04;100700.84;5095892;27;45505;-85
2022/08/04 06:37:20;;;;;;;;;6.75;5.75;;;;;25.73;48.46;100707.78;5077390;27;45506;-84
2022/08/04 06:39:46;;;;;;;;;7.25;6.00;;;;;25.79;48.08;100713.03;5095584;27;45459;-84
2022/08/04 06:42:12;;;;;;;;;3.00;3.00;;;;;25.69;48.35;100703.41;5096011;27;45771;-84
2022/08/04 06:44:41;;;;;;;;;2.25;1.50;;;;;25.77;48.04;100722.97;5095841;27;45405;-84
2022/08/04 06:47:07;;;;;;;;;3.00;3.00;;;;;25.63;48.78;100708.97;5074002;28;45704;-85
2022/08/04 06:49:35;;;;;;;;;4.75;4.00;;;;;25.62;48.50;100713.47;5074624;27;45500;-85
2022/08/04 06:52:02;;;;;;;;;4.00;3.50;;;;;25.58;48.73;100711.78;5073940;28;45851;-85
2022/08/04 06:54:28;;;;;;;;;4.50;3.75;;;;;25.65;48.06;100728.63;5075310;27;45461;-84
2022/08/04 06:56:56;;;;;;;;;3.00;3.00;;;;;25.59;48.08;100724.31;5075134;28;45511;-86
2022/08/04 06:59:23;;;;;;;;;4.50;4.00;;;;;25.66;48.44;100747.44;5075031;27;46343;-84
2022/08/04 07:01:50;;;;;;;;;3.25;3.25;;;;;25.67;48.31;100743.84;5074955;27;45880;-84
2022/08/04 07:04:15;;;;;;;;;3.50;3.25;;;;;25.66;48.75;100747.44;5074650;27;45358;-84
2022/08/04 07:06:41;;;;;;;;;2.75;2.75;;;;;25.69;48.41;100736.59;5074811;27;45401;-84
2022/08/04 07:09:06;;;;;;;;;2.00;2.00;;;;;25.78;48.87;100750.78;5074794;27;45346;-84
2022/08/04 07:11:32;;;;;;;;;4.00;4.00;;;;;25.91;48.11;100746.78;5073476;28;45594;-81
2022/08/04 07:13:58;;;;;;;;;3.25;3.00;;;;;26.03;48.00;100757.22;5074831;28;45361;-85
2022/08/04 07:16:24;;;;;;;;;4.00;3.00;;;;;26.09;48.46;100746.25;5074785;27;45323;-85
2022/08/04 07:18:50;;;;;;;;;5.25;5.25;;;;;26.11;48.19;100744.41;5074263;27;46340;-85
2022/08/04 07:21:22;;;;;;;;;2.50;2.50;;;;;26.37;48.01;100784.06;5075049;27;45542;-82
2022/08/04 07:23:49;;;;;;;;;5.00;4.00;;;;;26.32;47.50;100772.53;5073317;28;45536;-84
2022/08/04 07:26:16;;;;;;;;;4.50;4.00;;;;;26.33;47.53;100759.94;5074670;28;45492;-84
2022/08/04 07:28:41;;;;;;;;;4.75;3.00;;;;;26.39;47.81;100775.91;5073257;28;46841;-85
2022/08/04 07:31:10;;;;;;;;;4.25;4.25;;;;;26.39;47.39;100773.22;5072898;28;45304;-83
2022/08/04 07:33:37;;;;;;;;;3.50;3.50;;;;;26.36;47.52;100760.72;5074019;27;45433;-84
2022/08/04 07:36:03;;;;;;;;;4.75;4.75;;;;;26.50;47.73;100781.88;5074386;27;45366;-83
2022/08/04 07:38:28;;;;;;;;;3.00;3.00;;;;;26.48;47.53;100771.16;5072748;28;48190;-83
2022/08/04 07:40:54;;;;;;;;;4.25;3.00;;;;;26.46;47.32;100758.66;5072925;28;45607;-85
2022/08/04 07:43:20;;;;;;;;;4.00;3.00;;;;;26.33;47.58;100739.25;5074489;27;45436;-85
2022/08/04 07:45:46;;;;;;;;;3.00;2.25;;;;;26.29;47.94;100729.50;5074078;27;45467;-84
2022/08/04 07:48:13;;;;;;;;;4.75;4.50;;;;;26.36;47.04;100755.34;5088184;27;45527;-83
2022/08/04 07:50:41;;;;;;;;;4.00;4.00;;;;;26.32;47.43;100755.47;5075680;27;45576;-84
2022/08/04 07:53:07;;;;;;;;;3.50;3.00;;;;;26.27;47.65;100747.53;5076225;27;45305;-84
2022/08/04 07:55:32;;;;;;;;;5.00;4.25;;;;;26.27;47.74;100766.38;5094591;27;45498;-83
2022/08/04 07:57:58;;;;;;;;;4.00;4.00;;;;;26.14;48.32;100773.94;5094204;27;46196;-83
2022/08/04 08:00:23;;;;;;;;;7.00;4.00;;;;;26.19;48.08;100790.84;5094362;27;45405;-83
2022/08/04 08:02:50;;;;;;;;;2.00;2.00;;;;;26.09;49.55;100789.34;5076248;27;45454;-84
2022/08/04 08:05:18;;;;;;;;;3.00;3.00;;;;;26.20;49.60;100806.09;5094170;27;45229;-83
2022/08/04 08:07:49;;;;;;;;;4.00;3.75;;;;;26.16;50.58;100809.81;5094141;27;46112;-83
2022/08/04 08:10:16;;;;;;;;;4.50;4.00;;;;;26.12;50.64;100816.22;5075728;27;45622;-83
2022/08/04 08:12:42;;;;;;;;;4.50;4.50;;;;;26.00;50.83;100800.38;5094312;27;45422;-84
2022/08/04 08:15:11;;;;;;;;;4.75;4.00;;;;;25.76;51.35;100763.38;5094237;27;45277;-85
2022/08/04 08:17:37;;;;;;;;;5.00;4.00;;;;;26.04;51.58;100807.47;5075795;27;46168;-83
2022/08/04 08:20:03;;;;;;;;;6.25;6.00;;;;;25.88;51.33;100795.34;5094046;27;45728;-84
2022/08/04 08:22:30;;;;;;;;;3.50;2.75;;;;;25.86;51.13;100813.34;5094192;27;45459;-84
2022/08/04 08:24:56;;;;;;;;;4.75;3.00;;;;;25.89;51.40;100826.75;5094007;27;45362;-83
2022/08/04 08:27:22;;;;;;;;;4.00;4.00;;;;;25.77;52.11;100816.31;5093761;27;46591;-81
2022/08/04 08:29:48;;;;;;;;;4.25;4.00;;;;;25.72;52.46;100806.53;5094344;27;45520;-83
2022/08/04 08:32:14;;;;;;;;;3.25;3.00;;;;;25.64;52.55;100813.91;5093972;27;45342;-82
2022/08/04 08:34:41;;;;;;;;;3.50;3.00;;;;;25.78;53.27;100847.69;5093834;27;45314;-83
2022/08/04 08:37:21;;;;;;;;;4.00;3.25;;;;;25.73;52.99;100842.41;5093634;27;45364;-84
2022/08/04 08:40:09;;;;;;;;;4.00;4.00;;;;;25.69;52.86;100838.91;5093739;27;45445;-84
2022/08/04 08:43:13;;;;;;;;;3.00;3.00;;;;;25.65;53.08;100830.94;5075800;27;45643;-84
2022/08/04 08:45:54;;;;;;;;;3.00;2.00;;;;;25.63;53.71;100833.69;5077618;27;45371;-84
2022/08/04 08:48:42;;;;;;;;;4.00;4.00;;;;;25.65;54.03;100834.50;5097035;27;45484;-83
2022/08/04 08:51:57;;;;;;;;;2.50;2.50;;;;;25.68;53.93;100823.69;5040440;27;45883;-84
2022/08/04 08:54:52;;;;;;;;;4.00;3.50;;;;;25.71;53.74;100820.00;5057833;27;45600;-83
2022/08/04 08:57:26;;;;;;;;;3.25;2.25;;;;;25.80;53.60;100808.13;5079014;27;45479;-83
2022/08/04 09:00:20;;;;;;;;;3.75;3.00;;;;;25.89;53.58;100814.16;5097052;27;45500;-85
2022/08/04 09:03:15;;;;;;;;;6.00;5.50;;;;;25.78;53.91;100793.84;5078665;27;45875;-85
2022/08/04 09:05:57;;;;;;;;;2.00;2.00;;;;;25.96;54.02;100821.16;5078537;27;45344;-85
2022/08/04 09:08:54;;;;;;;;;4.25;3.00;;;;;26.17;53.81;100846.59;5097133;27;45489;-83
2022/08/04 09:11:26;;;;;;;;;2.75;2.75;;;;;26.17;54.20;100825.06;5078552;27;48269;-85
2022/08/04 09:13:59;;;;;;;;;3.75;3.75;;;;;26.36;53.48;100856.88;5078590;27;45285;-84
2022/08/04 09:16:46;;;;;;;;;2.25;2.25;;;;;26.34;52.85;100842.53;5096890;27;45292;-83
2022/08/04 09:19:22;;;;;;;;;4.00;3.00;;;;;26.36;52.62;100822.72;5078454;27;45622;-85
2022/08/04 09:22:00;;;;;;;;;2.00;2.00;;;;;26.41;52.66;100812.69;5096560;27;45717;-85
2022/08/04 09:24:58;;;;;;;;;2.75;2.00;;;;;26.46;51.88;100824.25;5096995;27;45860;-85
2022/08/04 09:27:37;;;;;;;;;2.00;2.00;;;;;26.34;51.83;100800.28;5096996;27;45590;-85
2022/08/04 09:30:06;;;;;;;;;3.00;3.00;;;;;26.53;52.40;100834.84;5078484;27;45419;-84
2022/08/04 09:32:37;;;;;;;;;2.50;2.25;;;;;26.65;51.80;100843.44;5078234;27;47014;-83
2022/08/04 09:35:41;;;;;;;;;2.75;1.75;;;;;26.78;52.02;100848.44;5096667;27;45958;-84
2022/08/04 09:38:20;;;;;;;;;3.00;3.00;;;;;26.74;51.66;100828.78;5079970;27;45525;-85
2022/08/04 09:41:10;;;;;;;;;3.75;3.00;;;;;26.99;51.33;100850.47;5078454;27;45379;-83
2022/08/04 09:43:46;;;;;;;;;1.00;1.00;;;;;26.85;51.21;100814.97;5096599;27;45457;-85
2022/08/04 09:46:23;;;;;;;;;2.50;2.50;;;;;27.00;51.09;100827.97;5096477;27;45455;-85
2022/08/04 09:49:14;;;;;;;;;2.00;2.00;;;;;27.11;50.47;100831.25;5096354;27;45616;-83
2022/08/04 09:51:56;;;;;;;;;1.00;1.00;;;;;27.21;50.54;100853.41;5096221;27;45470;-85
2022/08/04 09:54:42;;;;;;;;;2.75;2.00;;;;;27.16;50.53;100829.28;5096443;27;45564;-84
2022/08/04 09:57:10;;;;;;;;;1.25;1.00;;;;;27.23;50.29;100844.31;5095088;27;46313;-84
2022/08/04 09:59:56;;;;;;;;;2.75;2.00;;;;;27.01;49.94;100818.94;5096447;27;45394;-84
2022/08/04 10:02:23;;;;;;;;;2.00;2.00;;;;;26.90;50.14;100804.94;5096451;27;45395;-85
2022/08/04 10:04:52;;;;;;;;;1.50;1.50;;;;;26.96;50.31;100818.22;5096214;27;46416;-84
2022/08/04 10:07:29;;;;;;;;;1.75;1.00;;;;;27.05;50.18;100839.50;5095752;27;45811;-84
2022/08/04 10:10:04;;;;;;;;;1.00;1.00;;;;;27.01;50.25;100844.09;5096116;27;45293;-83
2022/08/04 10:12:46;;;;;;;;;2.25;2.00;;;;;26.87;50.45;100814.00;5096121;27;45523;-84
2022/08/04 10:15:42;;;;;;;;;1.50;1.00;;;;;27.01;50.49;100827.91;5096450;27;45788;-84
2022/08/04 10:18:13;;;;;;;;;2.00;1.00;;;;;27.20;50.52;100839.03;5096130;27;45443;-83
2022/08/04 10:20:54;;;;;;;;;2.00;1.75;;;;;27.20;50.11;100841.75;5095626;27;45330;-83
2022/08/04 10:23:41;;;;;;;;;1.00;1.00;;;;;27.22;50.42;100839.88;5096167;27;45286;-83
2022/08/04 10:26:27;;;;;;;;;1.25;1.00;;;;;27.31;50.45;100854.00;5095703;27;46508;-84
2022/08/04 10:29:04;;;;;;;;;2.00;2.00;;;;;27.34;50.37;100832.28;5095679;27;45873;-84
2022/08/04 10:31:34;;;;;;;;;1.00;1.00;;;;;27.52;49.79;100846.06;5095787;27;45481;-84
2022/08/04 10:34:26;;;;;;;;;1.75;1.75;;;;;27.55;49.61;100839.69;5095989;27;45381;-83
2022/08/04 10:37:15;;;;;;;;;1.00;1.00;;;;;27.56;49.47;100835.16;5095381;27;45514;-84
2022/08/04 10:43:01;;;;;;;;;1.50;1.25;;;;;27.53;49.23;100828.03;5095212;27;45386;-83
2022/08/04 10:45:35;;;;;;;;;1.00;1.00;;;;;27.60;49.60;100813.41;5095472;27;45391;-83
2022/08/04 10:48:20;;;;;;;;;1.00;1.00;;;;;27.58;49.34;100809.84;5095090;27;45506;-82
2022/08/04 10:50:57;;;;;;;;;0.00;0.00;;;;;27.61;49.26;100819.69;5094876;27;45323;-83
2022/08/04 10:53:25;;;;;;;;;1.75;1.00;;;;;27.49;49.13;100813.78;5077195;27;45308;-86
2022/08/04 10:56:21;;;;;;;;;2.00;2.00;;;;;27.51;49.49;100827.22;5096459;27;45343;-85
2022/08/04 10:58:54;;;;;;;;;2.00;1.00;;;;;27.40;49.69;100822.19;5073774;27;46447;-85
2022/08/04 11:01:31;;;;;;;;;1.75;1.75;;;;;27.46;49.50;100824.66;5077116;27;45842;-85
2022/08/04 11:04:03;;;;;;;;;1.50;1.50;;;;;27.53;49.54;100828.91;5095719;27;45457;-84
2022/08/04 11:06:31;;;;;;;;;1.25;1.00;;;;;27.43;49.34;100804.97;5095179;27;45481;-85
2022/08/04 11:09:02;;;;;;;;;2.00;1.75;;;;;27.55;49.44;100826.19;5095132;27;46669;-85
2022/08/04 11:11:57;;;;;;;;;1.25;1.25;;;;;27.49;49.25;100792.19;5095444;27;45478;-84
2022/08/04 11:14:30;;;;;;;;;1.00;1.00;;;;;27.64;49.45;100819.59;5095400;27;45507;-85
2022/08/04 11:17:10;;;;;;;;;1.25;1.00;;;;;27.79;49.16;100838.00;5095548;27;45299;-85
2022/08/04 11:19:59;;;;;;;;;3.00;2.50;;;;;27.87;49.13;100835.00;5095067;27;46674;-84
2022/08/04 11:22:26;;;;;;;;;1.50;1.50;;;;;27.81;48.89;100814.50;5056332;27;45758;-85
2022/08/04 11:25:18;;;;;;;;;2.00;1.50;;;;;27.97;48.85;100837.31;5095081;27;45648;-85
2022/08/04 11:28:04;;;;;;;;;1.00;1.00;;;;;28.11;48.46;100842.22;5094998;27;45502;-83
2022/08/04 11:30:53;;;;;;;;;1.75;1.25;;;;;28.09;48.68;100825.19;5094706;27;45388;-85
2022/08/04 11:33:35;;;;;;;;;2.25;1.75;;;;;28.00;48.20;100812.00;5086537;27;45390;-85
2022/08/04 11:36:06;;;;;;;;;2.25;2.25;;;;;28.18;48.13;100848.31;5094523;27;45370;-84
2022/08/04 11:38:35;;;;;;;;;3.25;2.25;;;;;28.21;48.34;100849.06;5095093;27;45625;-83
2022/08/04 11:41:09;;;;;;;;;2.75;2.00;;;;;28.07;48.05;100807.25;5094657;27;46550;-86
2022/08/04 11:43:43;;;;;;;;;3.00;2.75;;;;;28.25;48.14;100809.28;5094890;27;45484;-84
2022/08/04 11:46:17;;;;;;;;;1.75;1.75;;;;;28.45;47.75;100819.38;5076444;27;45475;-83
2022/08/04 11:49:14;;;;;;;;;2.00;2.00;;;;;28.64;47.58;100835.78;5094530;27;45479;-84
2022/08/04 11:51:42;;;;;;;;;3.25;2.00;;;;;28.71;47.18;100818.34;5085166;27;46309;-84
2022/08/04 11:54:10;;;;;;;;;2.75;2.00;;;;;28.75;47.44;100803.78;5094371;27;45314;-84
2022/08/04 11:56:36;;;;;;;;;2.25;2.25;;;;;28.90;46.71;100827.50;5094862;27;45547;-85
2022/08/04 11:59:03;;;;;;;;;2.00;2.00;;;;;28.96;46.79;100823.69;5094590;27;45359;-83
2022/08/04 12:01:46;;;;;;;;;2.75;2.00;;;;;29.14;47.00;100844.59;5094282;27;45537;-84
2022/08/04 12:04:15;;;;;;;;;2.00;2.00;;;;;29.27;46.05;100839.59;5094737;27;45903;-84
2022/08/04 12:06:54;;;;;;;;;2.00;2.00;;;;;29.30;45.71;100813.25;5094005;27;45474;-83
2022/08/04 12:09:43;;;;;;;;;3.00;3.00;;;;;29.56;45.36;100832.97;5076148;27;45372;-84
2022/08/04 12:12:21;;;;;;;;;3.75;3.00;;;;;29.69;44.86;100838.72;5075679;27;47231;-84
2022/08/04 12:14:57;;;;;;;;;3.00;3.00;;;;;29.77;44.82;100834.75;5094190;27;45835;-85